Time;durP1;ratioP1;P1;durP2;ratioP2;P2;SDS_P1;SDS_P2;PMS_P1;PMS_P2;Temp;Humidity;BMP_temperature;BMP_pressure;BME280_temperature;BME280_humidity;BME280_pressure;Samples;Min_cycle;Max_cycle;Signal;HPM_P1;HPM_P2
2020/12/16 00:01:29;;;;;;;72.30;11.77;;;6.20;99.90;;;;;;5059438;28;20045;-79
2020/12/16 00:03:55;;;;;;;37.80;9.93;;;6.20;99.90;;;;;;5057184;28;20474;-78
2020/12/16 00:06:20;;;;;;;56.42;10.50;;;6.20;99.90;;;;;;5061930;28;20017;-78
2020/12/16 00:08:47;;;;;;;34.72;8.48;;;6.10;99.90;;;;;;5061834;28;20386;-79
2020/12/16 00:11:12;;;;;;;70.30;10.95;;;6.10;99.90;;;;;;5068863;28;20021;-81
2020/12/16 00:13:38;;;;;;;50.63;11.07;;;6.10;99.90;;;;;;5057989;28;20025;-81
2020/12/16 00:16:05;;;;;;;59.63;9.95;;;6.10;99.90;;;;;;5058860;28;20028;-80
2020/12/16 00:18:31;;;;;;;56.40;9.70;;;6.10;99.90;;;;;;5056967;28;20021;-80
2020/12/16 00:20:59;;;;;;;38.65;9.25;;;6.10;99.90;;;;;;5057160;28;20032;-79
2020/12/16 00:23:25;;;;;;;48.28;8.93;;;6.10;99.90;;;;;;5054938;28;20555;-79
2020/12/16 00:25:50;;;;;;;70.43;11.15;;;6.10;99.90;;;;;;5058576;28;20025;-79
2020/12/16 00:28:16;;;;;;;89.75;11.60;;;6.10;99.90;;;;;;5056023;28;20026;-78
2020/12/16 00:30:47;;;;;;;61.58;9.20;;;6.10;99.90;;;;;;5068553;28;20028;-79
2020/12/16 00:33:14;;;;;;;40.30;10.07;;;6.00;99.90;;;;;;5088984;28;20023;-79
2020/12/16 00:35:39;;;;;;;37.88;11.10;;;6.10;99.90;;;;;;5085145;28;20383;-79
2020/12/16 00:38:05;;;;;;;43.10;10.35;;;6.10;99.90;;;;;;5075925;28;20023;-78
2020/12/16 00:40:31;;;;;;;38.03;11.10;;;6.10;99.90;;;;;;5071999;28;20028;-78
2020/12/16 00:42:56;;;;;;;30.85;9.40;;;6.10;99.90;;;;;;5055330;28;20047;-78
2020/12/16 00:45:22;;;;;;;43.80;9.65;;;6.10;99.90;;;;;;5056404;28;20029;-82
2020/12/16 00:47:47;;;;;;;48.15;9.80;;;7.60;99.90;;;;;;5057776;28;20382;-81
2020/12/16 00:50:15;;;;;;;50.95;11.23;;;6.10;99.90;;;;;;5058258;28;20075;-82
2020/12/16 00:52:41;;;;;;;50.73;9.93;;;6.10;99.90;;;;;;5064132;28;20043;-84
2020/12/16 00:55:06;;;;;;;38.28;10.57;;;6.00;99.90;;;;;;5074615;28;20255;-77
2020/12/16 00:57:33;;;;;;;50.88;11.95;;;6.10;99.90;;;;;;5073112;28;20017;-77
2020/12/16 00:59:59;;;;;;;58.97;10.23;;;6.10;99.90;;;;;;5073241;28;20032;-77
2020/12/16 01:02:24;;;;;;;99.78;13.65;;;6.10;99.90;;;;;;5055134;28;20028;-77
2020/12/16 01:04:50;;;;;;;70.70;10.25;;;6.10;99.90;;;;;;5051769;28;20040;-77
2020/12/16 01:07:15;;;;;;;53.63;11.45;;;6.10;99.90;;;;;;5054624;28;20025;-79
2020/12/16 01:09:41;;;;;;;34.65;9.63;;;6.10;99.90;;;;;;5056524;28;20021;-80
2020/12/16 01:12:07;;;;;;;45.67;9.48;;;6.10;99.90;;;;;;5073042;28;20039;-80
2020/12/16 01:14:32;;;;;;;49.35;10.75;;;6.10;99.90;;;;;;5081634;28;20032;-82
2020/12/16 01:16:58;;;;;;;53.15;10.88;;;6.10;99.90;;;;;;5083374;28;20029;-82
2020/12/16 01:19:23;;;;;;;40.20;10.32;;;6.20;99.90;;;;;;5079949;28;20087;-82
2020/12/16 01:21:49;;;;;;;48.08;9.20;;;6.10;99.90;;;;;;5061860;28;20474;-82
2020/12/16 01:24:14;;;;;;;29.17;10.18;;;6.20;99.90;;;;;;5073825;28;20017;-81
2020/12/16 01:26:46;;;;;;;42.47;9.00;;;6.10;99.90;;;;;;5062018;28;20052;-79
2020/12/16 01:29:12;;;;;;;81.22;12.38;;;6.10;99.90;;;;;;5063124;28;20076;-80
2020/12/16 01:31:41;;;;;;;48.78;11.60;;;6.10;99.90;;;;;;5081209;28;20060;-82
2020/12/16 01:34:07;;;;;;;37.60;9.77;;;6.10;99.90;;;;;;5082558;28;20015;-83
2020/12/16 01:36:32;;;;;;;27.90;10.10;;;6.10;99.90;;;;;;5085557;28;20044;-82
2020/12/16 01:38:58;;;;;;;22.52;9.43;;;6.10;99.90;;;;;;5068956;28;20017;-82
2020/12/16 01:41:24;;;;;;;26.50;9.40;;;6.10;99.90;;;;;;5061354;28;20025;-82
2020/12/16 01:43:50;;;;;;;23.88;10.13;;;6.10;99.90;;;;;;5060164;28;20143;-81
2020/12/16 01:46:16;;;;;;;34.75;10.48;;;6.10;99.90;;;;;;5061782;28;20032;-81
2020/12/16 01:48:42;;;;;;;30.45;10.38;;;6.70;99.90;;;;;;5069269;28;20439;-80
2020/12/16 01:51:15;;;;;;;25.67;10.80;;;6.20;99.90;;;;;;5079413;28;20020;-81
2020/12/16 01:53:43;;;;;;;44.97;10.25;;;6.20;99.90;;;;;;5079736;28;20470;-82
2020/12/16 01:56:10;;;;;;;40.42;10.95;;;6.20;99.90;;;;;;5081586;28;20036;-80
2020/12/16 01:58:38;;;;;;;36.75;12.00;;;6.20;99.90;;;;;;5075047;28;20029;-81
2020/12/16 02:01:04;;;;;;;38.47;11.02;;;6.20;99.90;;;;;;5062760;28;20043;-80
2020/12/16 02:03:31;;;;;;;51.50;11.70;;;6.20;99.90;;;;;;5062020;28;20029;-81
2020/12/16 02:05:57;;;;;;;42.45;11.88;;;6.10;99.90;;;;;;5060063;28;20029;-81
2020/12/16 02:08:26;;;;;;;52.38;10.82;;;6.20;99.90;;;;;;5060768;28;20051;-81
2020/12/16 02:10:53;;;;;;;30.65;11.07;;;6.10;99.90;;;;;;5057090;28;20371;-79
2020/12/16 02:13:18;;;;;;;30.15;10.80;;;6.10;99.90;;;;;;5055439;28;20116;-78
2020/12/16 02:15:44;;;;;;;37.17;11.60;;;6.10;99.90;;;;;;5065849;28;20054;-80
2020/12/16 02:18:10;;;;;;;36.85;11.23;;;6.10;99.90;;;;;;5079818;28;20036;-79
2020/12/16 02:20:36;;;;;;;41.35;11.48;;;6.10;99.90;;;;;;5088004;28;20028;-79
2020/12/16 02:23:08;;;;;;;142.02;13.60;;;6.10;99.90;;;;;;5087784;28;20028;-81
2020/12/16 02:25:34;;;;;;;58.33;13.50;;;6.20;99.90;;;;;;5087373;28;20047;-81
2020/12/16 02:28:00;;;;;;;68.35;14.15;;;6.20;99.90;;;;;;5071915;28;20029;-80
2020/12/16 02:30:25;;;;;;;61.53;11.95;;;6.10;99.90;;;;;;5061387;28;20025;-78
2020/12/16 02:32:51;;;;;;;65.18;11.07;;;6.20;99.90;;;;;;5057969;28;20017;-77
2020/12/16 02:35:16;;;;;;;44.58;12.27;;;6.20;99.90;;;;;;5055548;28;20027;-77
2020/12/16 02:37:42;;;;;;;48.22;11.13;;;6.20;99.90;;;;;;5069975;28;20021;-77
2020/12/16 02:40:08;;;;;;;44.33;12.10;;;6.20;99.90;;;;;;5075738;28;20033;-78
2020/12/16 02:42:33;;;;;;;39.40;12.50;;;6.20;99.90;;;;;;5075359;28;20055;-78
2020/12/16 02:44:59;;;;;;;32.35;11.45;;;6.20;99.90;;;;;;5075265;28;20020;-78
2020/12/16 02:47:25;;;;;;;32.50;11.48;;;6.20;99.90;;;;;;5074773;28;20028;-78
2020/12/16 02:49:51;;;;;;;32.20;12.50;;;6.20;99.90;;;;;;5074307;28;20146;-78
2020/12/16 02:52:16;;;;;;;47.03;12.02;;;6.20;99.90;;;;;;5075218;28;20047;-77
2020/12/16 02:54:42;;;;;;;30.02;12.02;;;6.30;99.90;;;;;;5074918;28;20166;-78
2020/12/16 02:57:07;;;;;;;25.85;11.00;;;6.20;99.90;;;;;;5075255;28;20029;-81
2020/12/16 02:59:33;;;;;;;27.08;11.02;;;6.30;99.90;;;;;;5079058;28;20021;-82
2020/12/16 03:01:59;;;;;;;27.77;10.68;;;6.20;99.90;;;;;;5080276;28;20334;-82
2020/12/16 03:04:25;;;;;;;44.25;12.73;;;6.20;99.90;;;;;;5077573;28;20025;-82
2020/12/16 03:06:53;;;;;;;30.15;10.60;;;6.30;99.90;;;;;;5060444;28;20036;-81
2020/12/16 03:09:21;;;;;;;29.33;11.57;;;6.30;99.90;;;;;;5060368;28;20027;-81
2020/12/16 03:11:50;;;;;;;35.50;10.88;;;6.20;99.90;;;;;;5058318;28;20025;-81
2020/12/16 03:14:16;;;;;;;44.67;12.27;;;6.30;99.90;;;;;;5056288;28;20037;-76
2020/12/16 03:16:41;;;;;;;33.08;10.27;;;6.30;99.90;;;;;;5073484;28;20020;-77
2020/12/16 03:19:07;;;;;;;39.13;10.48;;;6.20;99.90;;;;;;5077033;28;20032;-80
2020/12/16 03:21:32;;;;;;;35.88;10.10;;;6.20;99.90;;;;;;5080691;28;20035;-80
2020/12/16 03:23:58;;;;;;;71.50;12.05;;;6.20;99.90;;;;;;5079725;28;20466;-80
2020/12/16 03:26:23;;;;;;;33.13;11.82;;;6.20;99.90;;;;;;5078364;28;20086;-80
2020/12/16 03:28:49;;;;;;;29.77;10.65;;;6.10;99.90;;;;;;5079176;28;20032;-80
2020/12/16 03:31:16;;;;;;;39.80;12.27;;;6.10;99.90;;;;;;5078676;28;20028;-79
2020/12/16 03:33:43;;;;;;;30.25;11.70;;;6.10;99.90;;;;;;5070868;28;20390;-79
2020/12/16 03:36:20;;;;;;;34.45;10.27;;;6.10;99.90;;;;;;5057772;28;20017;-80
2020/12/16 03:38:46;;;;;;;31.00;11.45;;;6.10;99.90;;;;;;5063394;28;20071;-81
2020/12/16 03:41:15;;;;;;;38.78;12.27;;;6.10;99.90;;;;;;5060090;28;20027;-82
2020/12/16 03:43:43;;;;;;;35.72;11.23;;;6.10;99.90;;;;;;5069223;28;20029;-82
2020/12/16 03:46:09;;;;;;;34.22;12.68;;;6.00;99.90;;;;;;5083275;28;20016;-83
2020/12/16 03:48:36;;;;;;;33.88;11.07;;;6.00;99.90;;;;;;5082752;28;20024;-84
2020/12/16 03:51:05;;;;;;;45.22;12.18;;;6.00;99.90;;;;;;5080895;28;20027;-84
2020/12/16 03:53:33;;;;;;;36.92;11.45;;;6.00;99.90;;;;;;5079640;28;20031;-82
2020/12/16 03:56:03;;;;;;;48.13;11.82;;;6.00;99.90;;;;;;5076267;28;20021;-82
2020/12/16 03:58:28;;;;;;;49.60;12.15;;;6.00;99.90;;;;;;5075533;28;20059;-80
2020/12/16 04:00:54;;;;;;;37.35;11.57;;;6.00;99.90;;;;;;5074765;28;20033;-80
2020/12/16 04:03:20;;;;;;;36.03;11.43;;;;;;;;;;5070152;28;20082;-80
2020/12/16 04:05:45;;;;;;;40.55;11.80;;;6.00;99.90;;;;;;5055433;28;20036;-80
2020/12/16 04:08:11;;;;;;;34.50;10.93;;;6.00;99.90;;;;;;5053543;28;20029;-79
2020/12/16 04:10:36;;;;;;;42.33;11.70;;;6.00;99.90;;;;;;5057952;28;20036;-80
2020/12/16 04:13:02;;;;;;;44.75;11.90;;;6.00;99.90;;;;;;5073764;28;20020;-80
2020/12/16 04:15:27;;;;;;;43.00;12.15;;;6.00;99.90;;;;;;5076362;28;20029;-81
2020/12/16 04:17:53;;;;;;;41.58;12.23;;;6.00;99.90;;;;;;5077558;28;20037;-80
2020/12/16 04:20:18;;;;;;;47.10;12.43;;;6.00;99.90;;;;;;5075235;28;20039;-79
2020/12/16 04:22:44;;;;;;;39.63;11.50;;;6.00;99.90;;;;;;5077283;28;20031;-81
2020/12/16 04:28:33;;;;;;;52.58;11.65;;;6.00;99.90;;;;;;5083073;28;20038;-82
2020/12/16 04:30:59;;;;;;;52.47;12.52;;;5.80;99.90;;;;;;5080964;28;20504;-81
2020/12/16 04:33:25;;;;;;;42.47;12.57;;;6.00;99.90;;;;;;5079756;28;20070;-80
2020/12/16 04:35:50;;;;;;;30.02;11.32;;;5.90;99.90;;;;;;5056989;28;20435;-80
2020/12/16 04:38:16;;;;;;;39.10;12.57;;;6.00;99.90;;;;;;5059530;28;20112;-80
2020/12/16 04:40:42;;;;;;;38.60;11.98;;;6.00;99.90;;;;;;5060272;28;20082;-79
2020/12/16 04:43:16;;;;;;;36.80;11.88;;;6.00;99.90;;;;;;5064080;28;20033;-79
2020/12/16 04:45:43;;;;;;;46.20;11.45;;;6.00;99.90;;;;;;5081092;28;20059;-79
2020/12/16 04:48:09;;;;;;;52.55;12.50;;;6.00;99.90;;;;;;5080221;28;20388;-79
2020/12/16 04:50:39;;;;;;;42.95;11.55;;;6.00;99.90;;;;;;5077910;28;20064;-79
2020/12/16 04:53:10;;;;;;;33.97;12.48;;;5.90;99.90;;;;;;5075528;28;20047;-80
2020/12/16 04:55:36;;;;;;;32.92;10.95;;;5.80;99.90;;;;;;5067507;28;20028;-77
2020/12/16 04:58:04;;;;;;;41.45;11.40;;;6.00;99.90;;;;;;5052867;28;20025;-76
2020/12/16 05:00:31;;;;;;;38.60;10.23;;;6.00;99.90;;;;;;5055605;28;20025;-76
2020/12/16 05:02:59;;;;;;;47.65;11.52;;;6.00;99.90;;;;;;5055686;28;20029;-76
2020/12/16 05:05:25;;;;;;;37.75;11.07;;;6.00;99.90;;;;;;5070287;28;20074;-76
2020/12/16 05:07:51;;;;;;;33.05;11.02;;;6.00;99.90;;;;;;5075127;28;20032;-76
2020/12/16 05:10:30;;;;;;;33.13;11.38;;;6.10;99.90;;;;;;5075252;28;20021;-76
2020/12/16 05:13:04;;;;;;;44.15;11.68;;;6.10;99.90;;;;;;5077260;28;20013;-76
2020/12/16 05:15:30;;;;;;;54.67;11.90;;;6.10;99.90;;;;;;5074696;28;20056;-76
2020/12/16 05:18:08;;;;;;;58.17;12.18;;;6.10;99.90;;;;;;5076491;28;20021;-77
2020/12/16 05:20:35;;;;;;;38.17;11.20;;;6.10;99.90;;;;;;5075278;28;20505;-76
2020/12/16 05:23:02;;;;;;;43.15;11.05;;;6.10;99.90;;;;;;5078978;28;20050;-79
2020/12/16 05:25:28;;;;;;;48.22;11.40;;;6.10;99.90;;;;;;5068476;28;20056;-80
2020/12/16 05:27:54;;;;;;;38.50;11.05;;;6.10;99.90;;;;;;5061331;28;20040;-79
2020/12/16 05:30:20;;;;;;;28.38;9.82;;;6.10;99.90;;;;;;5059549;28;20029;-80
2020/12/16 05:32:46;;;;;;;28.02;11.05;;;6.20;99.90;;;;;;5077634;28;20021;-80
2020/12/16 05:35:27;;;;;;;33.38;10.38;;;6.20;99.90;;;;;;5082027;28;20028;-81
2020/12/16 05:38:10;;;;;;;21.17;10.00;;;6.20;99.90;;;;;;5079002;28;20031;-80
2020/12/16 05:40:37;;;;;;;29.40;10.05;;;6.20;99.90;;;;;;5081107;28;20029;-81
2020/12/16 05:43:04;;;;;;;20.73;9.60;;;6.10;99.90;;;;;;5074725;28;20079;-82
2020/12/16 05:45:35;;;;;;;23.13;9.40;;;6.10;99.90;;;;;;5062816;28;20031;-80
2020/12/16 05:48:09;;;;;;;23.58;9.68;;;6.10;99.90;;;;;;5061896;28;20385;-80
2020/12/16 05:50:55;;;;;;;20.60;9.88;;;6.10;99.90;;;;;;5064276;28;20509;-81
2020/12/16 05:53:22;;;;;;;22.85;8.98;;;6.10;99.90;;;;;;5070300;28;20025;-81
2020/12/16 05:55:50;;;;;;;21.95;7.85;;;6.20;99.90;;;;;;5068126;28;20429;-80
2020/12/16 05:58:17;;;;;;;19.77;8.18;;;6.20;99.90;;;;;;5068892;28;20386;-80
2020/12/16 06:00:48;;;;;;;16.77;7.82;;;6.10;99.90;;;;;;5068432;28;20071;-82
2020/12/16 06:03:18;;;;;;;15.45;7.45;;;6.10;99.90;;;;;;5074786;28;20017;-81
2020/12/16 06:05:49;;;;;;;25.17;8.48;;;6.10;99.90;;;;;;5084516;28;20080;-80
2020/12/16 06:08:16;;;;;;;23.75;8.05;;;6.00;99.90;;;;;;5067941;28;20021;-81
2020/12/16 06:10:44;;;;;;;25.10;8.75;;;6.00;99.90;;;;;;5060338;28;20386;-80
2020/12/16 06:13:13;;;;;;;17.03;7.30;;;5.90;99.90;;;;;;5066147;28;20026;-81
2020/12/16 06:15:48;;;;;;;25.27;8.23;;;5.90;99.90;;;;;;5080761;28;20028;-80
2020/12/16 06:18:15;;;;;;;17.83;7.60;;;5.90;99.90;;;;;;5080580;28;20025;-81
2020/12/16 06:20:42;;;;;;;22.05;7.95;;;5.90;99.90;;;;;;5084401;28;20024;-80
2020/12/16 06:23:26;;;;;;;17.10;7.35;;;5.90;99.90;;;;;;5077539;28;20074;-79
2020/12/16 06:25:55;;;;;;;18.95;7.82;;;5.90;99.90;;;;;;5093101;28;20382;-80
2020/12/16 06:28:21;;;;;;;20.15;7.25;;;5.90;99.90;;;;;;5076980;28;20051;-80
2020/12/16 06:30:55;;;;;;;21.75;7.90;;;5.90;99.90;;;;;;5080101;28;20025;-80
2020/12/16 06:33:24;;;;;;;29.45;7.90;;;5.80;99.90;;;;;;5094613;28;20048;-81
2020/12/16 06:35:54;;;;;;;;;;;5.80;99.90;;;;;;5078141;28;20020;-81
2020/12/16 06:38:22;;;;;;;15.85;7.00;;;5.80;99.90;;;;;;5078772;28;19951;-80
2020/12/16 06:40:57;;;;;;;27.90;8.30;;;4.00;99.90;;;;;;5078698;28;20146;-81
2020/12/16 06:43:31;;;;;;;23.45;8.50;;;5.80;99.90;;;;;;5048458;28;20029;-81
2020/12/16 06:45:59;;;;;;;32.72;9.00;;;5.70;99.90;;;;;;5046813;28;20028;-81
2020/12/16 06:48:38;;;;;;;23.95;8.30;;;5.70;99.90;;;;;;5046700;28;20021;-80
2020/12/16 06:51:20;;;;;;;22.25;9.68;;;5.70;99.90;;;;;;5041801;28;20025;-80
2020/12/16 06:53:47;;;;;;;25.25;9.98;;;5.70;99.90;;;;;;5046294;28;20021;-80
2020/12/16 06:56:18;;;;;;;21.33;8.95;;;5.70;99.90;;;;;;5048010;28;20025;-80
2020/12/16 06:58:44;;;;;;;23.83;9.63;;;5.70;99.90;;;;;;5051880;28;20025;-81
2020/12/16 07:01:14;;;;;;;22.33;9.88;;;5.70;99.90;;;;;;5086605;28;20016;-78
2020/12/16 07:03:40;;;;;;;19.15;9.07;;;5.70;99.90;;;;;;5075834;28;20049;-77
2020/12/16 07:06:11;;;;;;;25.95;9.88;;;5.80;99.90;;;;;;5076432;28;20024;-78
2020/12/16 07:08:37;;;;;;;25.70;10.80;;;5.80;99.90;;;;;;5075770;28;20032;-79
2020/12/16 07:11:03;;;;;;;22.92;9.73;;;5.80;99.90;;;;;;5046273;28;20502;-81
2020/12/16 07:13:34;;;;;;;23.65;10.32;;;5.80;99.90;;;;;;5125642;22;20051;-81
2020/12/16 07:16:13;;;;;;;35.95;11.23;;;5.60;99.90;;;;;;5099937;28;20061;-81
2020/12/16 07:18:39;;;;;;;25.33;9.82;;;5.80;99.90;;;;;;5090222;28;20610;-77
2020/12/16 07:21:07;;;;;;;23.25;10.65;;;5.80;99.90;;;;;;5085361;28;20025;-81
2020/12/16 07:23:53;;;;;;;31.20;10.98;;;5.80;99.90;;;;;;5086107;28;20552;-81
2020/12/16 07:26:29;;;;;;;25.85;11.02;;;5.80;99.90;;;;;;5083187;28;20032;-80
2020/12/16 07:28:57;;;;;;;30.17;10.38;;;5.80;99.90;;;;;;5082149;28;20025;-79
2020/12/16 07:31:23;;;;;;;26.17;10.65;;;5.80;99.90;;;;;;5083135;28;20032;-80
2020/12/16 07:33:50;;;;;;;25.70;10.20;;;5.80;99.90;;;;;;5075187;28;20388;-77
2020/12/16 07:36:17;;;;;;;24.55;9.05;;;5.80;99.90;;;;;;5073307;28;20017;-78
2020/12/16 07:38:51;;;;;;;23.10;10.50;;;5.80;99.90;;;;;;5073044;28;20123;-77
2020/12/16 07:41:25;;;;;;;23.02;9.60;;;5.80;99.90;;;;;;5074996;28;20025;-77
2020/12/16 07:43:55;;;;;;;20.65;10.13;;;5.80;99.90;;;;;;5073644;28;20020;-78
2020/12/16 07:46:22;;;;;;;24.40;9.68;;;8.80;99.90;;;;;;5074824;28;20052;-78
2020/12/16 07:48:48;;;;;;;22.52;9.85;;;5.90;99.90;;;;;;5076072;28;20082;-81
2020/12/16 07:51:14;;;;;;;23.38;10.75;;;5.90;99.90;;;;;;5079013;28;20028;-79
2020/12/16 07:53:50;;;;;;;22.70;9.95;;;5.90;99.90;;;;;;5080183;28;20415;-79
2020/12/16 07:56:17;;;;;;;19.98;9.30;;;5.90;99.90;;;;;;5080727;28;20055;-78
2020/12/16 07:58:43;;;;;;;26.05;10.20;;;5.80;99.90;;;;;;5078166;28;20013;-79
2020/12/16 08:01:18;;;;;;;27.23;10.13;;;5.80;99.90;;;;;;5077876;28;20031;-81
2020/12/16 08:03:44;;;;;;;23.48;9.73;;;5.90;99.90;;;;;;5080663;28;20017;-79
2020/12/16 08:06:10;;;;;;;20.55;10.00;;;5.90;99.90;;;;;;5077232;28;20024;-79
2020/12/16 08:08:55;;;;;;;23.10;10.20;;;5.90;99.90;;;;;;5075557;28;20021;-80
2020/12/16 08:11:30;;;;;;;18.13;9.05;;;5.80;99.90;;;;;;5075703;28;20039;-77
2020/12/16 08:14:06;;;;;;;23.25;9.85;;;5.80;99.90;;;;;;5073533;28;20393;-77
2020/12/16 08:16:34;;;;;;;19.63;9.13;;;5.80;99.90;;;;;;5075798;28;20028;-78
2020/12/16 08:19:04;;;;;;;20.73;9.50;;;5.80;99.90;;;;;;5076137;28;20046;-78
2020/12/16 08:21:33;;;;;;;17.60;8.95;;;5.80;99.90;;;;;;5077181;28;20092;-80
2020/12/16 08:23:59;;;;;;;19.23;8.98;;;5.70;99.90;;;;;;5077055;28;20031;-76
2020/12/16 08:26:25;;;;;;;17.90;9.20;;;5.70;99.90;;;;;;5079487;28;20119;-77
2020/12/16 08:28:51;;;;;;;19.92;9.50;;;5.60;99.90;;;;;;5074854;28;20384;-76
2020/12/16 08:31:22;;;;;;;18.75;9.48;;;5.60;99.90;;;;;;5075162;28;20021;-74
2020/12/16 08:33:50;;;;;;;19.05;9.35;;;5.60;99.90;;;;;;5074911;28;20101;-76
2020/12/16 08:36:24;;;;;;;17.20;7.93;;;5.60;99.90;;;;;;5078445;28;20362;-78
2020/12/16 08:38:51;;;;;;;17.88;9.00;;;5.60;99.90;;;;;;5078458;28;20023;-77
2020/12/16 08:41:28;;;;;;;18.35;8.70;;;5.60;99.90;;;;;;5077338;28;20050;-76
2020/12/16 08:43:55;;;;;;;20.35;8.88;;;5.60;99.90;;;;;;5077653;28;20055;-77
2020/12/16 08:46:26;;;;;;;17.05;8.50;;;5.60;99.90;;;;;;5077414;28;20052;-78
2020/12/16 08:49:01;;;;;;;17.40;8.55;;;5.60;99.90;;;;;;5075983;28;20025;-78
2020/12/16 08:51:40;;;;;;;17.13;8.65;;;5.60;99.90;;;;;;5078169;28;20028;-78
2020/12/16 08:54:18;;;;;;;15.10;7.65;;;5.60;99.90;;;;;;5077373;28;20031;-77
2020/12/16 08:56:52;;;;;;;18.30;8.10;;;5.60;99.90;;;;;;5076578;28;20132;-77
2020/12/16 08:59:29;;;;;;;14.88;7.88;;;5.70;99.90;;;;;;5080070;28;20024;-78
2020/12/16 09:02:09;;;;;;;17.20;7.65;;;5.70;99.90;;;;;;5077404;28;20025;-78
2020/12/16 09:04:37;;;;;;;12.98;6.45;;;5.80;99.90;;;;;;5077037;28;20508;-77
2020/12/16 09:07:24;;;;;;;14.13;7.40;;;5.80;99.90;;;;;;5077112;28;20029;-78
2020/12/16 09:09:50;;;;;;;14.35;7.35;;;5.80;99.90;;;;;;5077357;28;20039;-79
2020/12/16 09:12:18;;;;;;;15.32;7.00;;;5.90;99.90;;;;;;5076917;28;20021;-77
2020/12/16 09:14:51;;;;;;;13.23;6.45;;;5.90;99.90;;;;;;5076254;28;20031;-77
2020/12/16 09:17:17;;;;;;;11.32;6.35;;;6.00;99.90;;;;;;5076670;28;20046;-77
2020/12/16 09:19:43;;;;;;;12.18;6.53;;;6.00;99.90;;;;;;5077257;28;20035;-76
2020/12/16 09:22:09;;;;;;;10.93;6.15;;;6.00;99.90;;;;;;5076874;28;20017;-81
2020/12/16 09:24:35;;;;;;;10.57;6.13;;;6.10;99.90;;;;;;5078840;28;20028;-78
2020/12/16 09:27:09;;;;;;;13.20;6.25;;;6.10;99.90;;;;;;5077232;28;20024;-78
2020/12/16 09:29:42;;;;;;;11.80;6.55;;;6.20;99.90;;;;;;5075284;28;20059;-78
2020/12/16 09:32:18;;;;;;;10.40;6.25;;;6.30;99.90;;;;;;5076212;28;20389;-75
2020/12/16 09:34:49;;;;;;;8.93;5.72;;;6.30;99.90;;;;;;5076465;28;20021;-76
2020/12/16 09:37:24;;;;;;;10.40;5.45;;;6.40;99.90;;;;;;5076533;28;20508;-76
2020/12/16 09:40:00;;;;;;;10.32;5.38;;;6.60;99.90;;;;;;5074995;28;20024;-75
2020/12/16 09:42:26;;;;;;;9.52;5.80;;;6.70;99.90;;;;;;5076049;28;20024;-75
2020/12/16 09:44:51;;;;;;;9.27;5.55;;;6.80;99.90;;;;;;5075570;28;20074;-76
2020/12/16 09:47:22;;;;;;;10.75;5.30;;;6.90;99.90;;;;;;5075838;28;20067;-74
2020/12/16 09:50:03;;;;;;;8.27;4.93;;;7.00;99.90;;;;;;5075995;28;20086;-75
2020/12/16 09:52:31;;;;;;;9.18;5.47;;;7.00;99.90;;;;;;5076116;28;20024;-75
2020/12/16 09:54:58;;;;;;;9.80;4.87;;;7.10;99.90;;;;;;5076556;28;20107;-75
2020/12/16 09:57:27;;;;;;;7.57;4.95;;;7.10;99.90;;;;;;5076088;28;20040;-76
2020/12/16 09:59:53;;;;;;;8.02;4.68;;;;;;;;;;5097339;22;20040;-79
2020/12/16 10:02:19;;;;;;;9.50;5.57;;;7.20;99.90;;;;;;5095520;28;20035;-77
2020/12/16 10:04:45;;;;;;;11.10;5.30;;;7.20;99.90;;;;;;5096987;28;20388;-75
2020/12/16 10:07:10;;;;;;;10.40;5.10;;;7.30;99.90;;;;;;5096818;28;20043;-79
2020/12/16 10:09:39;;;;;;;9.68;4.95;;;7.40;99.90;;;;;;5098246;28;20073;-80
2020/12/16 10:12:04;;;;;;;8.02;4.75;;;7.40;99.90;;;;;;5099179;28;20024;-79
2020/12/16 10:14:30;;;;;;;10.43;5.30;;;7.50;99.90;;;;;;5098194;28;20027;-79
2020/12/16 10:16:56;;;;;;;8.10;4.75;;;7.50;99.90;;;;;;5097097;28;20030;-79
2020/12/16 10:19:22;;;;;;;8.90;4.78;;;7.50;99.90;;;;;;5097100;28;20077;-78
2020/12/16 10:21:48;;;;;;;8.68;4.82;;;7.50;99.90;;;;;;5107271;22;20036;-80
2020/12/16 10:24:18;;;;;;;9.68;5.30;;;7.50;99.90;;;;;;5097667;28;20020;-81
2020/12/16 10:26:47;;;;;;;8.35;4.38;;;8.60;99.90;;;;;;5097914;28;20027;-81
2020/12/16 10:29:17;;;;;;;13.40;4.75;;;7.70;99.90;;;;;;5096487;28;20024;-80
2020/12/16 10:31:49;;;;;;;7.97;4.40;;;7.70;99.90;;;;;;5098105;28;20028;-80
2020/12/16 10:34:15;;;;;;;8.25;4.85;;;7.80;99.90;;;;;;5096084;28;20024;-81
2020/12/16 10:36:41;;;;;;;7.50;4.68;;;7.90;99.90;;;;;;5096429;28;20016;-79
2020/12/16 10:39:06;;;;;;;8.88;4.28;;;7.90;99.90;;;;;;5096578;28;20030;-79
2020/12/16 10:41:32;;;;;;;6.78;4.70;;;8.00;99.90;;;;;;5097133;28;20059;-78
2020/12/16 10:43:57;;;;;;;6.97;3.88;;;8.10;99.90;;;;;;5096080;28;20034;-78
2020/12/16 10:46:23;;;;;;;7.85;4.10;;;8.10;99.90;;;;;;5095868;28;20059;-77
2020/12/16 10:48:49;;;;;;;6.45;3.78;;;8.20;99.90;;;;;;5095703;28;20116;-79
2020/12/16 10:51:14;;;;;;;8.30;4.45;;;8.20;99.90;;;;;;5098153;28;20035;-81
2020/12/16 10:53:40;;;;;;;7.03;4.20;;;8.30;99.90;;;;;;5097272;28;20508;-79
2020/12/16 10:56:06;;;;;;;5.35;3.47;;;8.30;99.90;;;;;;5096445;28;20020;-79
2020/12/16 10:58:31;;;;;;;7.85;4.10;;;8.40;99.90;;;;;;5095961;28;20035;-76
2020/12/16 11:00:57;;;;;;;8.10;4.30;;;8.40;99.90;;;;;;5095170;28;20024;-79
2020/12/16 11:03:22;;;;;;;5.85;3.55;;;8.50;99.90;;;;;;5095217;28;20031;-79
2020/12/16 11:05:48;;;;;;;8.55;4.28;;;8.50;99.90;;;;;;5095710;28;20074;-79
2020/12/16 11:08:14;;;;;;;5.95;3.92;;;8.50;99.90;;;;;;5096450;28;20039;-81
2020/12/16 11:10:39;;;;;;;8.65;3.97;;;8.60;99.90;;;;;;5097214;28;20388;-79
2020/12/16 11:13:05;;;;;;;7.28;3.85;;;8.70;99.90;;;;;;5095877;28;20016;-77
2020/12/16 11:15:32;;;;;;;5.28;2.80;;;8.70;99.90;;;;;;5093296;28;20020;-77
2020/12/16 11:17:57;;;;;;;5.80;3.45;;;8.70;99.90;;;;;;5094718;28;20012;-77
2020/12/16 11:20:23;;;;;;;7.45;4.47;;;8.80;99.90;;;;;;5094713;28;20024;-77
2020/12/16 11:22:48;;;;;;;7.60;3.53;;;8.90;99.90;;;;;;5094632;28;20020;-76
2020/12/16 11:25:14;;;;;;;4.95;2.80;;;8.90;99.90;;;;;;5093114;28;20485;-77
2020/12/16 11:27:40;;;;;;;7.95;3.22;;;9.00;99.90;;;;;;5094610;28;20503;-77
2020/12/16 11:30:05;;;;;;;5.05;3.20;;;9.00;99.90;;;;;;5094343;28;20016;-78
2020/12/16 11:32:31;;;;;;;7.63;3.70;;;9.10;99.90;;;;;;5093056;28;20026;-78
2020/12/16 11:34:56;;;;;;;5.45;3.45;;;9.10;99.90;;;;;;5092986;28;20024;-78
2020/12/16 11:37:22;;;;;;;8.27;4.00;;;9.20;99.90;;;;;;5094424;28;20039;-78
2020/12/16 11:39:48;;;;;;;5.22;3.20;;;9.20;99.90;;;;;;5092812;28;20056;-77
2020/12/16 11:42:14;;;;;;;4.43;3.00;;;9.30;99.90;;;;;;5094368;28;20029;-77
2020/12/16 11:44:39;;;;;;;5.47;3.42;;;9.30;99.90;;;;;;5094788;28;20028;-80
2020/12/16 11:47:06;;;;;;;8.35;3.80;;;9.40;99.90;;;;;;5094191;28;20024;-79
2020/12/16 11:49:31;;;;;;;4.68;3.05;;;9.50;99.90;;;;;;5093934;28;20055;-79
2020/12/16 11:51:57;;;;;;;5.85;3.50;;;9.60;99.90;;;;;;5095487;28;20063;-78
2020/12/16 11:54:23;;;;;;;6.20;3.65;;;9.70;99.90;;;;;;5095628;28;20031;-78
2020/12/16 11:56:49;;;;;;;9.70;4.43;;;9.70;99.90;;;;;;5094485;28;20024;-78
2020/12/16 11:59:14;;;;;;;7.43;3.80;;;9.80;99.90;;;;;;5098332;28;20039;-78
2020/12/16 12:01:43;;;;;;;6.25;3.42;;;9.80;99.90;;;;;;5097682;28;20024;-78
2020/12/16 12:04:09;;;;;;;6.78;3.88;;;9.80;99.90;;;;;;5095386;28;20020;-78
2020/12/16 12:06:35;;;;;;;6.72;3.80;;;9.90;99.90;;;;;;5096338;28;20031;-78
2020/12/16 12:09:01;;;;;;;6.50;3.70;;;;;;;;;;5143119;22;20051;-76
2020/12/16 12:11:39;;;;;;;7.57;3.90;;;9.80;99.90;;;;;;5099665;28;20040;-81
2020/12/16 12:14:19;;;;;;;6.47;3.50;;;10.30;99.90;;;;;;5095669;28;20036;-80
2020/12/16 12:16:45;;;;;;;7.20;3.85;;;;;;;;;;5095888;28;20020;-80
2020/12/16 12:19:10;;;;;;;6.63;3.63;;;10.00;99.90;;;;;;5093659;28;20392;-77
2020/12/16 12:21:36;;;;;;;9.32;3.65;;;9.90;99.90;;;;;;5094004;28;20039;-79
2020/12/16 12:24:02;;;;;;;6.30;3.22;;;10.00;99.90;;;;;;5094362;28;20032;-76
2020/12/16 12:26:27;;;;;;;6.95;2.75;;;10.00;99.90;;;;;;5093470;28;20179;-74
2020/12/16 12:28:53;;;;;;;6.40;3.33;;;10.10;99.90;;;;;;5105987;22;20044;-78
2020/12/16 12:31:19;;;;;;;8.73;3.60;;;10.10;99.90;;;;;;5094413;28;20028;-78
2020/12/16 12:33:44;;;;;;;5.40;3.28;;;10.10;99.90;;;;;;5093863;28;20100;-78
2020/12/16 12:36:11;;;;;;;7.40;3.78;;;10.10;99.90;;;;;;5092282;28;20016;-78
2020/12/16 12:38:36;;;;;;;8.48;4.07;;;10.20;99.90;;;;;;5092371;28;20020;-78
2020/12/16 12:41:02;;;;;;;6.18;3.55;;;10.20;99.90;;;;;;5093785;28;20032;-78
2020/12/16 12:43:28;;;;;;;6.20;3.33;;;10.30;99.90;;;;;;5095882;28;20024;-77
2020/12/16 12:45:53;;;;;;;6.53;4.22;;;10.30;99.90;;;;;;5094447;28;20053;-78
2020/12/16 12:48:19;;;;;;;9.90;3.88;;;10.30;99.90;;;;;;5097238;28;20028;-78
2020/12/16 12:50:45;;;;;;;6.32;3.60;;;10.30;99.90;;;;;;5093719;28;20434;-78
2020/12/16 12:53:11;;;;;;;6.05;3.45;;;10.30;99.90;;;;;;5093678;28;20016;-78